createdAt,value
2017-08-22T00:01:35.933Z,3.30
2017-08-22T00:04:04.824Z,3.85
2017-08-22T00:06:33.709Z,3.53
2017-08-22T00:09:02.423Z,4.15
2017-08-22T00:11:31.304Z,3.47
2017-08-22T00:14:00.206Z,3.85
2017-08-22T00:16:29.089Z,3.75
2017-08-22T00:18:58.768Z,3.30
2017-08-22T00:21:27.654Z,3.50
2017-08-22T00:23:56.534Z,3.80
2017-08-22T00:26:25.431Z,3.75
2017-08-22T00:28:54.310Z,4.03
2017-08-22T00:31:23.201Z,3.97
2017-08-22T00:33:52.165Z,3.00
2017-08-22T00:36:21.060Z,3.05
2017-08-22T00:38:49.938Z,3.67
2017-08-22T00:41:18.825Z,3.35
2017-08-22T00:43:47.728Z,3.30
2017-08-22T00:46:16.623Z,3.95
2017-08-22T00:48:45.501Z,3.97
2017-08-22T00:51:14.368Z,3.40
2017-08-22T00:53:43.254Z,3.15
2017-08-22T00:58:47.184Z,3.20
2017-08-22T01:01:16.953Z,3.90
2017-08-22T01:03:45.855Z,3.03
2017-08-22T01:06:14.053Z,3.50
2017-08-22T01:08:42.946Z,3.80
2017-08-22T01:11:11.837Z,3.85
2017-08-22T01:13:40.736Z,3.20
2017-08-22T01:16:09.615Z,3.65
2017-08-22T01:18:38.510Z,3.80
2017-08-22T01:21:07.054Z,3.33
2017-08-22T01:23:35.248Z,3.35
2017-08-22T01:26:04.127Z,3.72
2017-08-22T01:28:32.321Z,3.60
2017-08-22T01:31:00.870Z,3.60
2017-08-22T01:33:29.411Z,3.90
2017-08-22T01:35:58.298Z,3.25
2017-08-22T01:38:26.837Z,3.25
2017-08-22T01:40:55.377Z,3.10
2017-08-22T01:43:24.233Z,3.47
2017-08-22T01:45:53.135Z,2.75
2017-08-22T01:48:22.020Z,3.75
2017-08-22T01:50:50.947Z,4.57
2017-08-22T01:53:19.859Z,3.33
2017-08-22T01:55:48.765Z,3.10
2017-08-22T01:58:17.667Z,3.97
2017-08-22T02:00:46.205Z,3.42
2017-08-22T02:03:15.092Z,3.95
2017-08-22T02:05:43.989Z,3.87
2017-08-22T02:08:12.870Z,3.97
2017-08-22T02:10:41.751Z,3.83
2017-08-22T02:13:10.633Z,3.75
2017-08-22T02:15:39.531Z,3.95
2017-08-22T02:18:08.419Z,4.10
2017-08-22T02:20:37.304Z,3.65
2017-08-22T02:23:06.211Z,4.00
2017-08-22T02:25:35.108Z,3.62
2017-08-22T02:28:03.962Z,4.12
2017-08-22T02:30:32.862Z,4.65
2017-08-22T02:33:01.737Z,4.35
2017-08-22T02:35:30.624Z,3.85
2017-08-22T02:37:59.513Z,3.50
2017-08-22T02:40:28.407Z,4.60
2017-08-22T02:42:57.297Z,3.92
2017-08-22T02:45:26.186Z,3.65
2017-08-22T02:47:55.083Z,4.12
2017-08-22T02:50:23.974Z,4.22
2017-08-22T02:52:52.864Z,4.40
2017-08-22T02:55:21.765Z,3.90
2017-08-22T02:57:50.645Z,4.22
2017-08-22T03:00:19.551Z,4.40
2017-08-22T03:02:48.444Z,4.00
2017-08-22T03:05:17.329Z,4.25
2017-08-22T03:07:46.210Z,3.97
2017-08-22T03:10:15.103Z,4.00
2017-08-22T03:12:43.999Z,4.28
2017-08-22T03:15:12.892Z,3.87
2017-08-22T03:17:41.773Z,3.47
2017-08-22T03:20:10.674Z,4.40
2017-08-22T03:22:39.561Z,3.25
2017-08-22T03:25:08.447Z,4.15
2017-08-22T03:27:37.330Z,3.72
2017-08-22T03:30:06.228Z,3.45
2017-08-22T03:32:35.082Z,4.30
2017-08-22T03:35:03.961Z,3.65
2017-08-22T03:37:32.811Z,4.85
2017-08-22T03:40:01.688Z,4.60
2017-08-22T03:42:30.579Z,4.43
2017-08-22T03:44:59.432Z,4.00
2017-08-22T03:47:28.291Z,4.65
2017-08-22T03:49:57.179Z,4.20
2017-08-22T03:52:26.094Z,5.70
2017-08-22T03:54:54.987Z,4.25
2017-08-22T03:57:23.880Z,3.97
2017-08-22T03:59:52.761Z,4.72
2017-08-22T04:02:21.657Z,4.82
2017-08-22T04:04:50.553Z,4.45
2017-08-22T04:07:19.449Z,4.47
2017-08-22T04:09:48.345Z,3.80
2017-08-22T04:12:17.195Z,4.28
2017-08-22T04:14:46.084Z,4.20
2017-08-22T04:17:14.966Z,3.83
2017-08-22T04:19:43.844Z,3.85
2017-08-22T04:22:12.731Z,4.75
2017-08-22T04:24:41.658Z,4.55
2017-08-22T04:27:10.562Z,3.50
2017-08-22T04:29:39.449Z,3.90
2017-08-22T04:32:08.328Z,4.18
2017-08-22T04:34:37.215Z,3.85
2017-08-22T04:37:06.093Z,3.65
2017-08-22T04:39:34.991Z,5.60
2017-08-22T04:42:03.872Z,4.12
2017-08-22T04:44:32.777Z,4.22
2017-08-22T04:47:01.668Z,4.80
2017-08-22T04:49:30.556Z,4.20
2017-08-22T04:51:59.461Z,4.35
2017-08-22T04:54:28.361Z,4.18
2017-08-22T04:56:57.248Z,4.80
2017-08-22T04:59:26.142Z,4.80
2017-08-22T05:01:55.018Z,4.05
2017-08-22T05:04:23.923Z,4.78
2017-08-22T05:06:52.824Z,4.53
2017-08-22T05:09:21.734Z,4.72
2017-08-22T05:11:50.595Z,3.92
2017-08-22T05:14:19.494Z,4.70
2017-08-22T05:16:48.414Z,5.43
2017-08-22T05:19:17.314Z,4.75
2017-08-22T05:21:46.210Z,4.50
2017-08-22T05:24:15.102Z,4.80
2017-08-22T05:26:43.979Z,5.00
2017-08-22T05:29:13.818Z,4.50
2017-08-22T05:31:42.720Z,4.00
2017-08-22T05:34:14.684Z,5.50
2017-08-22T05:42:27.792Z,4.70
2017-08-22T05:44:56.673Z,4.65
2017-08-22T05:47:25.550Z,6.43
2017-08-22T05:49:55.257Z,5.07
2017-08-22T05:52:24.919Z,5.07
2017-08-22T05:54:53.783Z,4.35
2017-08-22T05:57:22.679Z,4.95
2017-08-22T05:59:51.556Z,4.80
2017-08-22T06:02:20.445Z,4.60
2017-08-22T06:04:49.331Z,4.90
2017-08-22T06:07:18.233Z,4.97
2017-08-22T06:09:47.122Z,5.32
2017-08-22T06:12:16.017Z,6.57
2017-08-22T06:14:44.900Z,5.20
2017-08-22T06:17:13.795Z,5.10
2017-08-22T06:19:42.706Z,4.75
2017-08-22T06:22:11.615Z,5.00
2017-08-22T06:24:40.500Z,5.60
2017-08-22T06:27:09.405Z,4.90
2017-08-22T06:29:38.276Z,5.10
2017-08-22T06:32:07.156Z,5.25
2017-08-22T06:34:36.053Z,6.03
2017-08-22T06:37:04.944Z,5.15
2017-08-22T06:39:33.836Z,4.00
2017-08-22T06:42:02.718Z,4.18
2017-08-22T06:44:31.570Z,4.47
2017-08-22T06:47:00.453Z,3.50
2017-08-22T06:49:29.355Z,4.22
2017-08-22T06:51:58.266Z,4.82
2017-08-22T06:54:27.163Z,4.78
2017-08-22T06:56:56.036Z,4.10
2017-08-22T06:59:24.937Z,4.62
2017-08-22T07:01:53.821Z,4.45
2017-08-22T07:04:22.710Z,4.55
2017-08-22T07:06:51.580Z,4.18
2017-08-22T07:09:20.460Z,4.70
2017-08-22T07:11:49.349Z,4.53
2017-08-22T07:14:18.237Z,4.28
2017-08-22T07:16:47.130Z,5.68
2017-08-22T07:19:16.086Z,4.00
2017-08-22T07:21:45.651Z,5.32
2017-08-22T07:24:14.614Z,4.45
2017-08-22T07:26:43.484Z,4.20
2017-08-22T07:29:12.374Z,5.43
2017-08-22T07:31:41.263Z,5.45
2017-08-22T07:34:10.162Z,4.72
2017-08-22T07:36:39.054Z,4.80
2017-08-22T07:41:46.845Z,5.60
2017-08-22T07:44:15.736Z,4.32
2017-08-22T07:46:44.626Z,4.65
2017-08-22T07:49:13.486Z,4.95
2017-08-22T07:51:42.404Z,5.10
2017-08-22T07:54:11.306Z,6.00
2017-08-22T07:56:40.202Z,4.40
2017-08-22T07:59:09.063Z,4.72
2017-08-22T08:01:37.960Z,5.12
2017-08-22T08:04:06.854Z,5.40
2017-08-22T08:06:35.696Z,5.53
2017-08-22T08:09:03.892Z,4.90
2017-08-22T08:11:32.776Z,5.62
2017-08-22T08:14:01.677Z,5.65
2017-08-22T08:16:30.560Z,5.50
2017-08-22T08:18:59.458Z,4.87
2017-08-22T08:21:28.333Z,4.70
2017-08-22T08:23:57.202Z,5.55
2017-08-22T08:26:25.744Z,4.93
2017-08-22T08:28:54.633Z,6.00
2017-08-22T08:31:23.525Z,5.50
2017-08-22T08:33:52.399Z,4.80
2017-08-22T08:36:21.123Z,5.45
2017-08-22T08:38:50.013Z,5.60
2017-08-22T08:41:18.892Z,4.70
2017-08-22T08:43:47.776Z,5.40
2017-08-22T08:46:16.660Z,4.40
2017-08-22T08:48:45.537Z,3.70
2017-08-22T08:51:14.394Z,4.68
2017-08-22T08:53:43.272Z,4.47
2017-08-22T08:56:12.175Z,4.70
2017-08-22T08:58:41.052Z,3.50
2017-08-22T09:01:09.945Z,3.97
2017-08-22T09:03:38.837Z,3.33
2017-08-22T09:06:07.368Z,3.40
2017-08-22T09:08:36.266Z,3.67
2017-08-22T09:11:05.158Z,2.72
2017-08-22T09:13:34.046Z,2.40
2017-08-22T09:16:02.943Z,3.20
2017-08-22T09:18:31.839Z,4.20
2017-08-22T09:21:00.788Z,5.45
2017-08-22T09:23:29.683Z,5.30
2017-08-22T09:25:58.573Z,6.43
2017-08-22T09:28:27.461Z,5.15
2017-08-22T09:30:56.370Z,6.22
2017-08-22T09:33:25.240Z,5.62
2017-08-22T09:35:54.853Z,4.25
2017-08-22T09:38:23.713Z,4.53
2017-08-22T09:40:52.572Z,4.18
2017-08-22T09:43:21.468Z,5.00
2017-08-22T09:45:50.370Z,4.85
2017-08-22T09:48:19.257Z,5.35
2017-08-22T09:50:48.156Z,5.10
2017-08-22T09:53:17.042Z,6.60
2017-08-22T09:55:45.933Z,6.40
2017-08-22T09:58:14.820Z,5.45
2017-08-22T10:00:43.704Z,6.10
2017-08-22T10:03:12.401Z,6.37
2017-08-22T10:05:41.293Z,5.85
2017-08-22T10:08:10.191Z,4.60
2017-08-22T10:10:39.081Z,4.87
2017-08-22T10:13:07.977Z,5.12
2017-08-22T10:15:36.851Z,4.78
2017-08-22T10:18:05.561Z,4.45
2017-08-22T10:20:34.467Z,6.00
2017-08-22T10:23:03.389Z,5.40
2017-08-22T10:25:32.441Z,5.85
2017-08-22T10:28:01.334Z,4.65
2017-08-22T10:30:30.233Z,6.00
2017-08-22T10:32:59.133Z,5.55
2017-08-22T10:35:28.749Z,6.35
2017-08-22T10:37:58.417Z,5.95
2017-08-22T10:40:27.305Z,6.00
2017-08-22T10:42:56.205Z,5.50
2017-08-22T10:45:25.108Z,5.50
2017-08-22T10:47:54.014Z,5.53
2017-08-22T10:50:22.925Z,6.50
2017-08-22T10:52:51.872Z,6.45
2017-08-22T10:55:20.783Z,5.85
2017-08-22T10:57:49.669Z,5.07
2017-08-22T11:00:18.549Z,5.30
2017-08-22T11:02:47.438Z,5.28
2017-08-22T11:05:16.334Z,4.85
2017-08-22T11:07:45.183Z,4.93
2017-08-22T11:10:14.044Z,5.60
2017-08-22T11:12:42.955Z,6.18
2017-08-22T11:15:11.839Z,4.87
2017-08-22T11:17:40.746Z,5.45
2017-08-22T11:20:09.625Z,5.25
2017-08-22T11:22:38.523Z,4.97
2017-08-22T11:25:07.400Z,6.03
2017-08-22T11:27:36.294Z,5.75
2017-08-22T11:30:04.843Z,5.30
2017-08-22T11:32:33.724Z,5.30
2017-08-22T11:35:02.613Z,5.40
2017-08-22T11:37:31.504Z,5.60
2017-08-22T11:40:00.362Z,4.90
2017-08-22T11:42:29.247Z,4.80
2017-08-22T11:44:58.181Z,5.75
2017-08-22T11:47:27.084Z,5.78
2017-08-22T11:49:55.983Z,6.00
2017-08-22T11:52:24.682Z,5.12
2017-08-22T11:54:53.544Z,5.03
2017-08-22T11:57:22.428Z,4.78
2017-08-22T11:59:51.290Z,5.50
2017-08-22T12:02:20.175Z,4.95
2017-08-22T12:04:49.082Z,4.40
2017-08-22T12:07:17.968Z,3.87
2017-08-22T12:09:46.854Z,3.85
2017-08-22T12:12:15.742Z,6.30
2017-08-22T12:14:44.641Z,3.25
2017-08-22T12:17:13.520Z,3.10
2017-08-22T12:19:42.217Z,4.03
2017-08-22T12:22:10.919Z,4.53
2017-08-22T12:24:39.803Z,6.12
2017-08-22T12:27:08.688Z,7.07
2017-08-22T12:29:37.587Z,6.47
2017-08-22T12:32:06.525Z,5.75
2017-08-22T12:34:35.424Z,6.25
2017-08-22T12:37:04.306Z,5.80
2017-08-22T12:39:33.144Z,5.75
2017-08-22T12:42:01.995Z,5.05
2017-08-22T12:44:30.889Z,6.37
2017-08-22T12:46:59.766Z,5.40
2017-08-22T12:49:28.655Z,5.00
2017-08-22T12:51:57.631Z,6.25
2017-08-22T12:54:26.517Z,5.45
2017-08-22T12:56:55.415Z,4.05
2017-08-22T12:59:24.288Z,4.20
2017-08-22T13:01:53.183Z,4.12
2017-08-22T13:04:22.061Z,4.00
2017-08-22T13:06:50.932Z,3.72
2017-08-22T13:09:19.782Z,3.87
2017-08-22T13:11:48.669Z,4.18
2017-08-22T13:14:17.561Z,3.50
2017-08-22T13:16:46.467Z,4.12
2017-08-22T13:19:15.362Z,5.20
2017-08-22T13:21:44.265Z,3.75
2017-08-22T13:24:13.147Z,3.80
2017-08-22T13:26:42.039Z,4.05
2017-08-22T13:29:10.917Z,3.65
2017-08-22T13:31:39.770Z,3.85
2017-08-22T13:34:08.674Z,3.37
2017-08-22T13:36:37.561Z,3.40
2017-08-22T13:39:06.458Z,3.62
2017-08-22T13:41:36.105Z,3.00
2017-08-22T13:44:04.980Z,3.03
2017-08-22T13:46:33.861Z,2.58
2017-08-22T13:49:02.752Z,2.15
2017-08-22T13:51:31.623Z,2.65
2017-08-22T13:54:00.518Z,1.90
2017-08-22T13:56:29.389Z,3.08
2017-08-22T13:58:58.235Z,2.50
2017-08-22T14:01:27.126Z,2.22
2017-08-22T14:03:56.009Z,2.75
2017-08-22T14:06:24.937Z,2.00
2017-08-22T14:08:53.849Z,2.72
2017-08-22T14:11:24.190Z,2.72
2017-08-22T14:13:53.072Z,2.67
2017-08-22T14:16:21.952Z,2.33
2017-08-22T14:18:50.850Z,2.05
2017-08-22T14:21:19.738Z,2.45
2017-08-22T14:23:48.613Z,2.22
2017-08-22T14:26:17.492Z,1.90
2017-08-22T14:28:46.368Z,1.60
2017-08-22T14:31:15.253Z,2.00
2017-08-22T14:33:44.150Z,2.47
2017-08-22T14:36:13.027Z,2.40
2017-08-22T14:38:42.610Z,1.75
2017-08-22T14:41:11.604Z,1.75
2017-08-22T14:43:40.480Z,2.05
2017-08-22T14:46:09.387Z,1.73
2017-08-22T14:48:38.278Z,1.98
2017-08-22T14:51:07.165Z,1.90
2017-08-22T14:53:36.056Z,1.77
2017-08-22T14:56:04.959Z,2.00
2017-08-22T14:58:33.862Z,1.92
2017-08-22T15:01:02.746Z,1.90
2017-08-22T15:03:31.636Z,1.70
2017-08-22T15:06:00.538Z,1.12
2017-08-22T15:08:29.437Z,1.40
2017-08-22T15:10:58.317Z,1.70
2017-08-22T15:13:27.238Z,1.33
2017-08-22T15:15:56.143Z,1.60
2017-08-22T15:18:25.029Z,1.35
2017-08-22T15:20:53.929Z,1.40
2017-08-22T15:23:22.808Z,2.00
2017-08-22T15:25:51.696Z,1.80
2017-08-22T15:28:20.597Z,1.70
2017-08-22T15:30:49.455Z,1.52
2017-08-22T15:33:18.358Z,1.92
2017-08-22T15:35:47.255Z,1.65
2017-08-22T15:38:16.155Z,2.17
2017-08-22T15:40:45.052Z,2.05
2017-08-22T15:43:13.945Z,1.25
2017-08-22T15:45:42.833Z,1.45
2017-08-22T15:48:12.573Z,1.80
2017-08-22T15:50:41.520Z,1.50
2017-08-22T15:53:10.413Z,1.70
2017-08-22T15:55:39.309Z,1.45
2017-08-22T15:58:08.202Z,2.12
2017-08-22T16:00:37.096Z,1.85
2017-08-22T16:03:06.827Z,1.62
2017-08-22T16:05:35.731Z,1.58
2017-08-22T16:11:10.090Z,1.67
2017-08-22T16:13:38.960Z,1.95
2017-08-22T16:16:07.850Z,2.00
2017-08-22T16:18:37.414Z,1.95
2017-08-22T16:21:13.144Z,2.40
2017-08-22T16:40:24.124Z,2.42
2017-08-22T16:45:46.324Z,1.95
2017-08-22T16:48:15.980Z,2.00
2017-08-22T16:50:44.877Z,2.55
2017-08-22T16:53:13.764Z,2.50
2017-08-22T16:55:42.629Z,1.98
2017-08-22T16:58:11.517Z,2.22
2017-08-22T17:00:40.061Z,2.10
2017-08-22T17:03:08.919Z,2.50
2017-08-22T17:05:37.799Z,2.05
2017-08-22T17:08:06.655Z,2.22
2017-08-22T17:10:35.552Z,1.90
2017-08-22T17:13:04.450Z,2.15
2017-08-22T17:15:33.332Z,2.85
2017-08-22T17:18:02.239Z,1.95
2017-08-22T17:20:31.129Z,2.47
2017-08-22T17:23:00.022Z,2.30
2017-08-22T17:25:28.920Z,1.75
2017-08-22T17:28:01.017Z,2.22
2017-08-22T17:30:29.900Z,2.05
2017-08-22T17:32:58.911Z,2.35
2017-08-22T17:35:27.771Z,2.47
2017-08-22T17:37:57.254Z,2.72
2017-08-22T17:40:26.147Z,2.65
2017-08-22T17:42:55.765Z,2.50
2017-08-22T17:45:24.660Z,2.40
2017-08-22T17:47:53.555Z,2.90
2017-08-22T17:50:22.437Z,2.03
2017-08-22T17:52:51.321Z,1.83
2017-08-22T17:55:20.204Z,2.60
2017-08-22T17:57:49.084Z,2.20
2017-08-22T18:00:17.992Z,2.60
2017-08-22T18:02:46.890Z,2.60
2017-08-22T18:05:15.785Z,2.17
2017-08-22T18:07:44.676Z,2.12
2017-08-22T18:10:13.561Z,4.35
2017-08-22T18:12:46.995Z,3.22
2017-08-22T18:15:16.760Z,2.75
2017-08-22T18:17:46.260Z,2.40
2017-08-22T18:20:15.149Z,4.62
2017-08-22T18:22:44.605Z,3.65
2017-08-22T18:25:13.465Z,3.15
2017-08-22T18:27:42.367Z,2.33
2017-08-22T18:30:11.222Z,2.58
2017-08-22T18:32:40.102Z,2.87
2017-08-22T18:35:09.180Z,2.30
2017-08-22T18:37:38.069Z,2.78
2017-08-22T18:40:06.956Z,2.22
2017-08-22T18:42:35.833Z,2.30
2017-08-22T18:45:04.683Z,2.58
2017-08-22T18:47:33.591Z,2.08
2017-08-22T18:50:02.491Z,2.50
2017-08-22T18:52:31.399Z,2.42
2017-08-22T18:55:00.298Z,2.55
2017-08-22T18:57:29.174Z,3.45
2017-08-22T18:59:58.072Z,3.22
2017-08-22T19:02:26.981Z,3.17
2017-08-22T19:04:55.894Z,2.90
2017-08-22T19:07:24.792Z,2.90
2017-08-22T19:09:53.673Z,2.47
2017-08-22T19:12:22.564Z,2.55
2017-08-22T19:14:52.221Z,2.65
2017-08-22T19:17:21.129Z,2.72
2017-08-22T19:19:50.017Z,2.65
2017-08-22T19:22:18.910Z,2.70
2017-08-22T19:24:47.798Z,3.15
2017-08-22T19:27:51.051Z,2.97
2017-08-22T19:30:19.955Z,2.78
2017-08-22T19:32:52.021Z,2.72
2017-08-22T19:35:20.925Z,2.78
2017-08-22T19:40:59.590Z,3.05
2017-08-22T19:43:28.185Z,3.03
2017-08-22T19:45:59.785Z,3.95
2017-08-22T19:48:28.674Z,3.12
2017-08-22T19:50:57.564Z,2.50
2017-08-22T19:53:26.462Z,4.10
2017-08-22T19:58:48.200Z,3.53
2017-08-22T20:01:17.089Z,4.00
2017-08-22T20:03:46.372Z,3.47
2017-08-22T20:06:15.244Z,3.78
2017-08-22T20:08:44.086Z,4.00
2017-08-22T20:11:12.978Z,3.75
2017-08-22T20:13:41.866Z,4.10
2017-08-22T20:16:10.750Z,4.12
2017-08-22T20:18:39.648Z,4.32
2017-08-22T20:21:08.535Z,4.40
2017-08-22T20:23:37.423Z,3.80
2017-08-22T20:26:06.311Z,3.95
2017-08-22T20:28:35.196Z,4.60
2017-08-22T20:31:04.863Z,3.87
2017-08-22T20:33:33.771Z,4.05
2017-08-22T20:36:02.653Z,4.47
2017-08-22T20:38:31.537Z,4.20
2017-08-22T20:41:00.425Z,4.50
2017-08-22T20:43:29.306Z,4.20
2017-08-22T20:45:58.181Z,5.03
2017-08-22T20:48:27.061Z,4.35
2017-08-22T20:50:56.234Z,4.50
2017-08-22T20:53:25.112Z,4.30
2017-08-22T20:55:54.014Z,3.92
2017-08-22T20:58:22.902Z,3.65
2017-08-22T21:00:51.789Z,4.10
2017-08-22T21:03:20.672Z,4.45
2017-08-22T21:05:49.557Z,4.55
2017-08-22T21:08:18.433Z,4.57
2017-08-22T21:10:47.324Z,5.12
2017-08-22T21:13:16.226Z,4.20
2017-08-22T21:15:45.089Z,4.97
2017-08-22T21:18:13.973Z,4.68
2017-08-22T21:20:42.870Z,4.25
2017-08-22T21:23:11.761Z,4.53
2017-08-22T21:25:40.613Z,5.43
2017-08-22T21:28:09.483Z,6.35
2017-08-22T21:30:38.365Z,4.22
2017-08-22T21:33:07.248Z,4.57
2017-08-22T21:35:36.143Z,5.03
2017-08-22T21:38:05.034Z,4.22
2017-08-22T21:40:33.926Z,5.03
2017-08-22T21:43:02.818Z,4.70
2017-08-22T21:45:31.705Z,5.43
2017-08-22T21:48:00.593Z,4.80
2017-08-22T21:50:29.481Z,4.35
2017-08-22T21:52:58.328Z,4.68
2017-08-22T21:55:27.221Z,3.95
2017-08-22T21:57:56.115Z,4.10
2017-08-22T22:00:25.006Z,4.45
2017-08-22T22:02:53.854Z,4.75
2017-08-22T22:05:22.738Z,4.20
2017-08-22T22:07:51.637Z,4.00
2017-08-22T22:10:20.522Z,4.00
2017-08-22T22:12:49.417Z,3.60
2017-08-22T22:15:18.311Z,3.70
2017-08-22T22:17:47.191Z,4.37
2017-08-22T22:20:16.072Z,4.55
2017-08-22T22:22:44.971Z,4.07
2017-08-22T22:25:13.862Z,4.32
2017-08-22T22:27:42.721Z,4.22
2017-08-22T22:30:11.609Z,4.55
2017-08-22T22:32:40.506Z,4.15
2017-08-22T22:35:09.386Z,4.87
2017-08-22T22:37:38.287Z,4.65
2017-08-22T22:40:07.176Z,4.25
2017-08-22T22:42:36.820Z,4.75
2017-08-22T22:45:05.705Z,4.93
2017-08-22T22:47:34.594Z,4.62
2017-08-22T22:50:03.486Z,3.97
2017-08-22T22:52:32.368Z,4.75
2017-08-22T22:55:01.262Z,4.82
2017-08-22T22:57:30.157Z,3.58
2017-08-22T22:59:59.059Z,5.03
2017-08-22T23:02:27.914Z,4.57
2017-08-22T23:04:56.853Z,4.82
2017-08-22T23:07:25.744Z,5.10
2017-08-22T23:09:54.610Z,3.40
2017-08-22T23:12:23.504Z,3.70
2017-08-22T23:14:52.354Z,4.10
2017-08-22T23:17:21.242Z,4.18
2017-08-22T23:19:50.126Z,3.80
2017-08-22T23:22:19.010Z,3.95
2017-08-22T23:24:47.892Z,3.97
2017-08-22T23:27:16.781Z,3.97
2017-08-22T23:29:45.684Z,4.20
2017-08-22T23:32:14.653Z,3.97
2017-08-22T23:34:43.550Z,4.05
2017-08-22T23:37:12.430Z,4.00
2017-08-22T23:39:41.285Z,3.83
2017-08-22T23:42:10.162Z,4.00
2017-08-22T23:44:39.045Z,3.85
2017-08-22T23:47:07.938Z,4.78
2017-08-22T23:49:36.794Z,3.67
2017-08-22T23:52:05.660Z,4.03
2017-08-22T23:54:34.546Z,4.60
2017-08-22T23:57:03.426Z,4.30
2017-08-22T23:59:33.078Z,3.50
